Time;durP1;ratioP1;P1;durP2;ratioP2;P2;SDS_P1;SDS_P2;PMS_P1;PMS_P2;Temp;Humidity;BMP_temperature;BMP_pressure;BME280_temperature;BME280_humidity;BME280_pressure;Samples;Min_cycle;Max_cycle;Signal;HPM_P1;HPM_P2
2023/01/08 00:00:13;;;;;;;9.55;7.68;;;;;;;19.97;58.25;101572.38;5033004;28;20411;-49
2023/01/08 00:02:40;;;;;;;10.13;7.70;;;;;;;19.96;58.37;101578.69;5032542;28;20056;-47
2023/01/08 00:05:10;;;;;;;8.88;6.90;;;;;;;19.97;58.06;101582.22;5032578;28;20415;-48
2023/01/08 00:07:38;;;;;;;9.73;7.30;;;;;;;19.97;58.63;101574.16;5031985;28;20467;-48
2023/01/08 00:10:06;;;;;;;11.13;7.30;;;;;;;19.97;58.71;101564.31;5037115;28;20049;-49
2023/01/08 00:12:33;;;;;;;8.95;7.22;;;;;;;19.98;59.33;101562.47;5052094;28;20487;-48
2023/01/08 00:15:00;;;;;;;11.15;7.53;;;;;;;19.96;59.41;101553.66;5054822;28;20059;-49
2023/01/08 00:17:28;;;;;;;10.70;6.97;;;;;;;19.96;59.44;101550.97;5055752;28;20052;-48
2023/01/08 00:19:55;;;;;;;10.10;7.68;;;;;;;19.95;59.38;101554.63;5055995;28;20060;-49
2023/01/08 00:22:23;;;;;;;12.30;7.15;;;;;;;19.95;59.40;101562.69;5055939;28;20048;-49
2023/01/08 00:24:50;;;;;;;10.00;6.93;;;;;;;19.93;59.31;101568.19;5056260;28;20049;-49
2023/01/08 00:27:17;;;;;;;9.15;6.88;;;;;;;19.93;59.23;101573.56;5055672;28;20509;-50
2023/01/08 00:29:45;;;;;;;9.77;7.57;;;;;;;19.93;59.41;101567.31;5056242;28;20049;-51
2023/01/08 00:32:12;;;;;;;11.07;7.18;;;;;;;19.92;59.36;101562.91;5055593;28;20041;-48
2023/01/08 00:34:39;;;;;;;10.30;7.28;;;;;;;19.92;59.19;101573.66;5055722;28;20049;-49
2023/01/08 00:37:06;;;;;;;10.02;7.53;;;;;;;19.90;59.06;101565.75;5055944;28;20045;-48
2023/01/08 00:39:34;;;;;;;10.65;7.72;;;;;;;19.90;59.06;101571.13;5055689;28;20049;-48
2023/01/08 00:42:01;;;;;;;10.63;7.47;;;;;;;19.89;59.31;101573.91;5055459;28;20491;-51
2023/01/08 00:44:28;;;;;;;9.27;7.13;;;;;;;19.89;59.12;101572.09;5055550;28;20048;-49
2023/01/08 00:46:55;;;;;;;8.80;7.30;;;;;;;19.89;58.93;101573.91;5055687;28;20494;-48
2023/01/08 00:49:23;;;;;;;9.52;7.53;;;;;;;19.88;58.95;101567.66;5055524;28;20517;-49
2023/01/08 00:51:50;;;;;;;7.97;6.95;;;;;;;19.88;58.91;101561.44;5055368;28;20049;-49
2023/01/08 00:54:17;;;;;;;9.90;7.70;;;;;;;19.87;59.06;101565.13;5055728;28;20049;-49
2023/01/08 00:56:45;;;;;;;11.30;7.55;;;;;;;19.86;58.70;101566.09;5055225;28;20403;-48
2023/01/08 00:59:12;;;;;;;9.00;6.65;;;;;;;19.87;58.91;101565.13;5055471;28;20483;-48
2023/01/08 01:01:39;;;;;;;9.05;7.97;;;;;;;19.86;58.89;101561.56;5055220;28;20049;-50
2023/01/08 01:04:07;;;;;;;7.88;6.97;;;;;;;19.86;58.76;101568.78;5055056;28;20107;-48
2023/01/08 01:06:34;;;;;;;11.10;7.75;;;;;;;19.86;58.62;101563.41;5055514;28;20056;-50
2023/01/08 01:09:01;;;;;;;10.32;7.00;;;;;;;19.86;58.68;101549.97;5047176;28;20049;-47
2023/01/08 01:11:29;;;;;;;9.38;7.35;;;;;;;19.86;58.61;101553.50;5035121;28;20056;-49
2023/01/08 01:13:56;;;;;;;11.25;7.72;;;;;;;19.86;58.54;101552.66;5033887;28;20053;-48
2023/01/08 01:16:24;;;;;;;10.45;7.68;;;;;;;19.86;58.41;101555.34;5035105;28;20048;-49
2023/01/08 01:18:52;;;;;;;9.20;7.20;;;;;;;19.85;58.34;101549.13;5034945;28;20052;-48
2023/01/08 01:21:25;;;;;;;9.68;7.43;;;;;;;19.85;58.28;101545.56;5034903;28;20041;-53
2023/01/08 01:23:53;;;;;;;;;;;;;;;19.85;58.19;101546.44;5035719;28;20049;-47
2023/01/08 01:26:21;;;;;;;8.13;7.03;;;;;;;19.86;58.27;101553.50;5033985;28;19944;-48
2023/01/08 01:28:51;;;;;;;9.88;7.72;;;;;;;19.85;57.95;101542.88;5034657;28;20491;-50
2023/01/08 01:31:19;;;;;;;10.80;8.00;;;;;;;19.85;58.20;101534.81;5034606;28;20407;-49
2023/01/08 01:33:47;;;;;;;11.00;7.90;;;;;;;19.84;58.08;101533.09;5035006;28;20053;-47
2023/01/08 01:36:17;;;;;;;9.95;7.45;;;;;;;19.85;58.03;101522.25;5034563;28;20045;-49
2023/01/08 01:38:46;;;;;;;9.48;7.63;;;;;;;19.84;58.02;101504.41;5034654;28;20041;-48
2023/01/08 01:41:36;;;;;;;9.65;7.78;;;;;;;19.84;57.86;101509.75;5034723;28;20511;-48
2023/01/08 01:44:31;;;;;;;8.80;6.97;;;;;;;19.83;57.79;101513.44;5034355;28;20052;-47
2023/01/08 01:47:03;;;;;;;8.20;7.13;;;;;;;19.85;57.75;101513.31;5034543;28;20424;-47
2023/01/08 01:49:32;;;;;;;10.10;7.75;;;;;;;19.83;57.48;101507.22;5034531;28;20046;-49
2023/01/08 01:52:04;;;;;;;9.63;7.22;;;;;;;19.84;57.43;101511.59;5034814;28;20049;-48
2023/01/08 01:54:34;;;;;;;9.20;7.72;;;;;;;19.84;57.40;101503.53;5034467;28;20045;-47
2023/01/08 01:57:02;;;;;;;10.38;7.68;;;;;;;19.82;57.33;101492.94;5034195;28;20041;-50
2023/01/08 01:59:30;;;;;;;8.90;7.68;;;;;;;19.82;57.14;101498.31;5034013;28;20494;-47
2023/01/08 02:01:58;;;;;;;9.27;7.38;;;;;;;19.82;57.34;101506.34;5034562;28;20046;-47
2023/01/08 02:04:25;;;;;;;9.80;7.65;;;;;;;19.83;57.26;101499.16;5034148;28;20491;-47
2023/01/08 02:07:11;;;;;;;13.25;7.40;;;;;;;19.82;57.10;101486.69;5033718;28;20661;-47
2023/01/08 02:09:47;;;;;;;9.63;7.38;;;;;;;19.82;57.08;101489.38;5034363;28;20038;-48
2023/01/08 02:12:40;;;;;;;10.38;8.32;;;;;;;19.82;56.82;101460.69;5033263;28;20056;-48
2023/01/08 02:15:20;;;;;;;10.07;7.67;;;;;;;19.81;56.94;101448.22;5033969;28;20045;-48
2023/01/08 02:18:03;;;;;;;8.77;7.07;;;;;;;19.81;56.77;101461.66;5033876;28;20041;-49
2023/01/08 02:20:36;;;;;;;8.80;7.60;;;;;;;19.80;56.67;101462.63;5034310;28;20049;-48
2023/01/08 02:23:13;;;;;;;9.30;7.60;;;;;;;19.81;56.62;101463.47;5033564;28;20046;-47
2023/01/08 02:26:05;;;;;;;10.77;7.93;;;;;;;19.80;56.63;101456.41;5033387;28;20049;-48
2023/01/08 02:28:43;;;;;;;11.13;7.75;;;;;;;19.81;56.66;101447.34;5048671;28;20041;-47
2023/01/08 02:31:13;;;;;;;10.50;8.38;;;;;;;19.81;56.55;101452.72;5053663;28;20056;-48
2023/01/08 02:33:40;;;;;;;9.90;7.50;;;;;;;19.81;56.58;101452.72;5053908;28;20064;-47
2023/01/08 02:36:26;;;;;;;10.35;8.15;;;;;;;19.80;56.51;101445.66;5053505;28;20388;-48
2023/01/08 02:39:02;;;;;;;8.90;7.50;;;;;;;19.80;56.68;101445.66;5052407;28;20041;-47
2023/01/08 02:41:42;;;;;;;10.45;7.38;;;;;;;19.80;56.40;101437.59;5053578;28;20049;-48
2023/01/08 02:44:16;;;;;;;10.27;8.52;;;;;;;19.80;56.52;101435.75;5053356;28;20378;-47
2023/01/08 02:46:43;;;;;;;10.13;7.53;;;;;;;19.80;56.36;101440.28;5053254;28;20049;-48
2023/01/08 02:49:12;;;;;;;12.25;8.30;;;;;;;19.81;56.45;101436.59;5053538;28;20052;-50
2023/01/08 02:51:46;;;;;;;9.80;7.57;;;;;;;19.80;56.39;101432.22;5053229;28;20052;-48
2023/01/08 02:54:18;;;;;;;10.90;7.65;;;;;;;19.80;56.39;101434.91;5053408;28;20049;-48
2023/01/08 02:56:51;;;;;;;9.47;7.53;;;;;;;19.80;56.45;101440.28;5053434;28;20387;-47
2023/01/08 02:59:21;;;;;;;8.45;7.22;;;;;;;19.79;56.24;101434.03;5053112;28;20063;-50
2023/01/08 03:01:49;;;;;;;9.77;7.43;;;;;;;19.81;56.30;101428.53;5052971;28;20055;-48
2023/01/08 03:04:20;;;;;;;9.70;7.47;;;;;;;19.80;56.47;101424.16;5053522;28;20045;-47
2023/01/08 03:06:49;;;;;;;9.93;7.25;;;;;;;19.80;56.24;101416.09;5053146;28;20049;-47
2023/01/08 03:09:17;;;;;;;8.65;7.38;;;;;;;19.80;56.47;101424.16;5053187;28;20044;-48
2023/01/08 03:11:48;;;;;;;9.90;7.55;;;;;;;19.81;56.33;101425.84;5047629;28;20056;-48
2023/01/08 03:14:15;;;;;;;10.55;8.02;;;;;;;19.80;56.42;101410.72;5053216;28;20372;-48
2023/01/08 03:16:51;;;;;;;7.93;7.13;;;;;;;19.79;56.27;101417.06;5052967;28;20056;-48
2023/01/08 03:19:22;;;;;;;10.35;8.18;;;;;;;19.80;56.29;101429.53;5051871;28;20052;-49
2023/01/08 03:21:51;;;;;;;11.43;8.18;;;;;;;19.80;56.33;101434.91;5053101;28;20056;-49
2023/01/08 03:24:23;;;;;;;11.07;8.45;;;;;;;19.80;56.34;101429.53;5053279;28;20048;-47
2023/01/08 03:26:54;;;;;;;8.80;7.57;;;;;;;19.79;56.35;101428.66;5052861;28;20049;-48
2023/01/08 03:29:23;;;;;;;9.65;7.85;;;;;;;19.80;56.40;101426.84;5052903;28;20049;-48
2023/01/08 03:31:56;;;;;;;8.88;7.65;;;;;;;19.79;56.44;101419.75;5053317;28;20479;-51
2023/01/08 03:34:27;;;;;;;9.65;7.57;;;;;;;19.80;56.38;101416.09;5052590;28;20063;-48
2023/01/08 03:36:57;;;;;;;9.77;7.45;;;;;;;19.80;56.38;101413.41;5053021;28;20056;-50
2023/01/08 03:39:35;;;;;;;10.50;7.85;;;;;;;19.79;56.46;101414.38;5053089;28;20045;-48
2023/01/08 03:42:09;;;;;;;9.35;7.72;;;;;;;19.80;56.50;101416.94;5052417;28;20053;-47
2023/01/08 03:44:36;;;;;;;9.40;8.02;;;;;;;19.80;56.49;101418.78;5053169;28;20045;-51
2023/01/08 03:47:07;;;;;;;10.32;7.70;;;;;;;19.79;56.62;101414.38;5052741;28;20474;-47
2023/01/08 03:49:36;;;;;;;9.77;7.75;;;;;;;19.79;56.45;101411.69;5054626;28;20045;-47
2023/01/08 03:52:04;;;;;;;9.57;7.88;;;;;;;19.80;56.55;101418.78;5056973;28;20044;-48
2023/01/08 03:54:34;;;;;;;10.00;8.05;;;;;;;19.79;56.48;101423.31;5056452;28;20052;-51
2023/01/08 03:57:01;;;;;;;10.73;8.40;;;;;;;19.79;56.42;101417.94;5056441;28;20044;-48
2023/01/08 03:59:28;;;;;;;11.15;8.05;;;;;;;19.78;56.66;101416.22;5056792;28;20068;-48
2023/01/08 04:01:56;;;;;;;11.10;8.55;;;;;;;19.79;56.56;101417.06;5056424;28;20045;-48
2023/01/08 04:04:23;;;;;;;9.57;7.80;;;;;;;19.78;56.41;101416.22;5056456;28;20049;-50
2023/01/08 04:06:52;;;;;;;10.85;8.57;;;;;;;19.78;56.41;101410.00;5056718;28;20051;-47
2023/01/08 04:09:19;;;;;;;11.98;8.75;;;;;;;19.78;56.46;101396.56;5056039;28;20076;-49
2023/01/08 04:11:46;;;;;;;11.43;9.15;;;;;;;19.78;56.63;101404.63;5047834;28;20491;-49
2023/01/08 04:14:14;;;;;;;12.75;9.00;;;;;;;19.78;56.49;101407.31;5041137;28;20045;-50
2023/01/08 04:16:41;;;;;;;10.77;8.73;;;;;;;19.78;56.39;101416.22;5036649;28;20071;-48
2023/01/08 04:19:10;;;;;;;10.63;8.48;;;;;;;19.79;56.53;101419.75;5036044;28;20045;-48
2023/01/08 04:21:38;;;;;;;10.02;8.27;;;;;;;19.78;56.41;101416.22;5035902;28;20494;-48
2023/01/08 04:24:06;;;;;;;12.15;8.85;;;;;;;19.78;56.31;101415.38;5035842;28;20056;-48
2023/01/08 04:26:33;;;;;;;11.55;8.60;;;;;;;19.77;56.39;101406.47;5036365;28;20052;-48
2023/01/08 04:29:02;;;;;;;10.80;8.90;;;;;;;19.78;56.46;101418.06;5046761;28;20049;-48
2023/01/08 04:31:30;;;;;;;10.77;9.20;;;;;;;19.78;56.25;101418.06;5056261;28;20044;-48
2023/01/08 04:33:58;;;;;;;11.73;8.57;;;;;;;19.78;56.32;101413.53;5055624;28;20080;-48
2023/01/08 04:36:25;;;;;;;9.82;8.38;;;;;;;19.78;56.50;101418.06;5055257;28;20049;-47
2023/01/08 04:38:52;;;;;;;9.80;8.80;;;;;;;19.78;56.42;101413.53;5055488;28;20052;-48
2023/01/08 04:41:20;;;;;;;9.85;8.07;;;;;;;19.78;56.44;101412.69;5055721;28;20045;-47
2023/01/08 04:43:47;;;;;;;9.77;8.30;;;;;;;19.78;56.27;101418.91;5055678;28;20383;-48
2023/01/08 04:46:14;;;;;;;12.85;8.95;;;;;;;19.78;56.37;101415.38;5056159;28;20045;-50
2023/01/08 04:48:42;;;;;;;11.23;9.23;;;;;;;19.78;56.38;101408.16;5055605;28;20048;-46
2023/01/08 04:51:09;;;;;;;10.63;8.90;;;;;;;19.78;56.42;101405.47;5055478;28;20053;-50
2023/01/08 04:53:36;;;;;;;12.93;9.23;;;;;;;19.76;56.36;101389.47;5055657;28;20057;-48
2023/01/08 04:56:06;;;;;;;11.27;8.45;;;;;;;19.78;56.37;101385.81;5055281;28;20048;-49
2023/01/08 04:58:35;;;;;;;12.60;9.32;;;;;;;19.77;56.40;101398.41;5055203;28;20048;-50
2023/01/08 05:01:20;;;;;;;12.65;9.20;;;;;;;19.78;56.17;101399.25;5054461;28;20049;-48
2023/01/08 05:03:56;;;;;;;11.88;9.88;;;;;;;19.76;56.41;101392.16;5055146;28;20053;-50
2023/01/08 05:06:24;;;;;;;11.93;9.23;;;;;;;19.77;56.29;101390.34;5055243;28;20379;-52
2023/01/08 05:08:51;;;;;;;10.85;8.13;;;;;;;19.78;56.19;101378.63;5055338;28;20126;-48
2023/01/08 05:11:19;;;;;;;10.70;8.65;;;;;;;19.77;56.25;101379.59;5039363;28;20072;-50
2023/01/08 05:13:47;;;;;;;12.25;9.38;;;;;;;19.76;56.35;101380.56;5049219;28;20041;-50
2023/01/08 05:16:15;;;;;;;11.30;8.63;;;;;;;19.76;56.31;101372.50;5054841;28;20053;-49
2023/01/08 05:18:44;;;;;;;11.00;8.90;;;;;;;19.76;56.24;101351.84;5055152;28;20041;-49
2023/01/08 05:21:12;;;;;;;11.57;8.40;;;;;;;19.76;56.15;101348.31;5054949;28;20044;-50
2023/01/08 05:23:44;;;;;;;12.00;8.95;;;;;;;19.77;56.20;101355.41;5054619;28;20048;-49
2023/01/08 05:26:11;;;;;;;13.18;9.52;;;;;;;19.76;56.07;101341.09;5055357;28;20049;-47
2023/01/08 05:28:39;;;;;;;10.75;8.70;;;;;;;19.76;56.00;101332.19;5054751;28;20379;-47
2023/01/08 05:31:06;;;;;;;11.07;9.25;;;;;;;19.76;56.11;101324.97;5054691;28;20049;-48
2023/01/08 05:33:34;;;;;;;14.52;10.05;;;;;;;19.75;55.95;101325.97;5054988;28;20395;-49
2023/01/08 05:36:04;;;;;;;14.13;10.10;;;;;;;19.75;56.03;101323.28;5054524;28;20056;-51
2023/01/08 05:38:31;;;;;;;11.20;8.63;;;;;;;19.75;56.12;101320.59;5054745;28;20048;-51
2023/01/08 05:40:58;;;;;;;11.75;9.07;;;;;;;19.76;56.11;101321.44;5054342;28;20049;-48
2023/01/08 05:43:26;;;;;;;12.07;9.93;;;;;;;19.75;56.05;101314.38;5054583;28;20057;-51
2023/01/08 05:45:53;;;;;;;12.05;9.70;;;;;;;19.75;55.98;101309.84;5054525;28;20056;-49
2023/01/08 05:48:21;;;;;;;13.38;10.27;;;;;;;19.75;55.97;101304.47;5054403;28;20041;-52
2023/01/08 05:50:49;;;;;;;12.38;9.35;;;;;;;19.76;56.04;101294.59;5054652;28;20049;-48
2023/01/08 05:53:16;;;;;;;12.25;9.70;;;;;;;19.75;56.10;101287.50;5054279;28;20391;-48
2023/01/08 05:55:43;;;;;;;13.52;10.05;;;;;;;19.75;56.13;101288.34;5054275;28;20120;-47
2023/01/08 05:58:11;;;;;;;11.82;10.10;;;;;;;19.75;56.04;101288.34;5054529;28;20056;-48
2023/01/08 06:00:39;;;;;;;12.88;9.73;;;;;;;19.75;56.03;101296.41;5054114;28;20064;-48
2023/01/08 06:03:06;;;;;;;11.20;8.98;;;;;;;19.75;55.97;101293.72;5054127;28;20052;-52
2023/01/08 06:05:33;;;;;;;12.35;9.98;;;;;;;19.76;56.01;101295.44;5054189;28;20045;-47
2023/01/08 06:08:01;;;;;;;13.45;9.63;;;;;;;19.76;56.03;101275.78;5053940;28;20053;-47
2023/01/08 06:10:28;;;;;;;13.25;10.40;;;;;;;19.76;56.22;101271.25;5053787;28;20045;-49
2023/01/08 06:12:55;;;;;;;13.63;9.85;;;;;;;19.76;56.06;101268.56;5053450;28;20060;-48
2023/01/08 06:15:22;;;;;;;12.88;10.43;;;;;;;19.76;56.00;101273.09;5032757;28;20045;-48
2023/01/08 06:17:50;;;;;;;13.18;10.32;;;;;;;19.75;55.97;101272.25;5033776;28;20064;-48
2023/01/08 06:20:17;;;;;;;10.57;9.07;;;;;;;19.76;55.95;101281.16;5033726;28;20052;-48
2023/01/08 06:22:44;;;;;;;14.90;11.32;;;;;;;19.75;56.09;101280.28;5034429;28;20060;-49
2023/01/08 06:25:12;;;;;;;12.30;9.88;;;;;;;19.75;55.93;101274.94;5033925;28;20045;-49
2023/01/08 06:27:39;;;;;;;12.20;10.38;;;;;;;19.75;56.00;101284.81;5033683;28;20053;-48
2023/01/08 06:30:07;;;;;;;13.32;10.07;;;;;;;19.74;56.00;101291.19;5052683;28;20048;-48
2023/01/08 06:32:35;;;;;;;12.93;9.95;;;;;;;19.74;56.22;101283.13;5053544;28;20049;-49
2023/01/08 06:35:03;;;;;;;11.98;9.60;;;;;;;19.74;56.07;101289.34;5053470;28;20395;-49
2023/01/08 06:37:30;;;;;;;13.77;10.57;;;;;;;19.74;56.10;101289.34;5053548;28;20056;-49
2023/01/08 06:39:57;;;;;;;14.15;10.57;;;;;;;19.74;55.97;101291.19;5053313;28;20045;-48
2023/01/08 06:42:25;;;;;;;15.30;10.05;;;;;;;19.74;56.04;101288.50;5053255;28;20376;-53
2023/01/08 06:44:52;;;;;;;12.38;10.27;;;;;;;19.73;55.92;101268.00;5053490;28;20045;-49
2023/01/08 06:47:19;;;;;;;11.77;9.77;;;;;;;19.72;55.97;101267.09;5053091;28;20048;-49
2023/01/08 06:49:47;;;;;;;13.55;9.90;;;;;;;19.73;55.92;101258.09;5052842;28;20044;-50
2023/01/08 06:52:14;;;;;;;13.15;9.73;;;;;;;19.73;55.97;101265.31;5053789;28;20388;-48
2023/01/08 06:54:41;;;;;;;12.88;9.75;;;;;;;19.73;56.16;101254.56;5053193;28;20459;-47
2023/01/08 06:57:08;;;;;;;11.98;9.52;;;;;;;19.71;56.02;101243.06;5053265;28;20045;-49
2023/01/08 06:59:36;;;;;;;12.23;10.02;;;;;;;19.72;56.17;101247.44;5053223;28;20052;-49
2023/01/08 07:02:03;;;;;;;13.05;9.93;;;;;;;19.71;56.29;101253.81;5053290;28;20060;-49
2023/01/08 07:04:30;;;;;;;12.35;8.63;;;;;;;19.70;56.25;101244.91;5051893;28;20417;-49
2023/01/08 07:06:58;;;;;;;11.45;9.52;;;;;;;19.71;56.18;101253.81;5053216;28;20406;-49
2023/01/08 07:09:25;;;;;;;12.82;10.13;;;;;;;19.70;56.20;101261.03;5051306;28;20049;-50
2023/01/08 07:11:52;;;;;;;11.48;9.93;;;;;;;19.70;56.22;101266.41;5033639;28;20049;-48
2023/01/08 07:14:19;;;;;;;11.95;9.52;;;;;;;19.71;56.04;101269.94;5036193;28;20044;-52
2023/01/08 07:16:47;;;;;;;13.35;10.45;;;;;;;19.70;56.20;101273.59;5051756;28;20040;-48
2023/01/08 07:19:14;;;;;;;13.27;10.27;;;;;;;19.70;56.09;101269.06;5053214;28;20048;-48
2023/01/08 07:21:41;;;;;;;11.80;9.25;;;;;;;19.71;56.20;101280.66;5052995;28;20045;-48
2023/01/08 07:24:09;;;;;;;12.20;10.40;;;;;;;19.70;56.10;101290.56;5054185;28;20051;-52
2023/01/08 07:26:38;;;;;;;14.20;10.02;;;;;;;19.71;56.03;101292.28;5057441;28;20056;-49
2023/01/08 07:29:05;;;;;;;14.45;10.73;;;;;;;19.71;56.07;101286.03;5057136;28;20060;-47
2023/01/08 07:31:33;;;;;;;11.68;9.70;;;;;;;19.72;56.07;101268.94;5057052;28;20048;-51
2023/01/08 07:34:00;;;;;;;13.85;9.60;;;;;;;19.70;56.12;101266.41;5056960;28;20049;-47
2023/01/08 07:36:27;;;;;;;12.60;10.05;;;;;;;19.72;55.92;101288.59;5057325;28;20059;-48
2023/01/08 07:38:55;;;;;;;13.23;10.35;;;;;;;19.71;56.07;101286.03;5056782;28;20049;-49
2023/01/08 07:41:22;;;;;;;12.02;9.57;;;;;;;19.71;55.86;101292.28;5056901;28;20475;-50
2023/01/08 07:43:49;;;;;;;13.90;10.63;;;;;;;19.72;56.11;101287.75;5057070;28;20049;-49
2023/01/08 07:46:17;;;;;;;14.65;10.00;;;;;;;19.71;55.97;101272.63;5056730;28;20045;-48
2023/01/08 07:48:44;;;;;;;12.45;10.23;;;;;;;19.71;55.82;101270.78;5057036;28;20049;-48
2023/01/08 07:51:11;;;;;;;12.75;10.40;;;;;;;19.70;55.89;101269.06;5056685;28;20498;-47
2023/01/08 07:53:39;;;;;;;11.88;10.15;;;;;;;19.71;55.90;101256.50;5056641;28;20379;-48
2023/01/08 07:56:08;;;;;;;12.00;9.55;;;;;;;19.70;55.91;101255.66;5055201;28;20384;-50
2023/01/08 07:58:36;;;;;;;12.23;9.52;;;;;;;19.71;56.00;101265.41;5056720;28;20041;-47
2023/01/08 08:01:06;;;;;;;13.68;11.32;;;;;;;19.70;55.88;101263.72;5056310;28;20048;-49
2023/01/08 08:03:34;;;;;;;13.05;10.45;;;;;;;19.70;55.92;101262.84;5056305;28;20056;-49
2023/01/08 08:06:01;;;;;;;14.82;10.65;;;;;;;19.70;55.94;101258.34;5056564;28;20071;-50
2023/01/08 08:08:29;;;;;;;12.02;9.80;;;;;;;19.70;55.84;101260.16;5056752;28;20049;-48
2023/01/08 08:10:56;;;;;;;13.90;9.85;;;;;;;19.70;56.00;101254.78;5056052;28;20479;-47
2023/01/08 08:13:23;;;;;;;11.32;9.45;;;;;;;19.69;55.98;101243.19;5055827;28;20049;-47
2023/01/08 08:15:51;;;;;;;13.15;10.05;;;;;;;19.70;55.91;101260.16;5047729;28;20065;-49
2023/01/08 08:18:19;;;;;;;13.95;11.32;;;;;;;19.72;55.93;101258.19;5035383;28;20056;-51
2023/01/08 08:20:48;;;;;;;13.85;10.57;;;;;;;19.70;55.77;101263.72;5036053;28;20052;-49
2023/01/08 08:23:15;;;;;;;14.40;10.55;;;;;;;19.70;55.80;101270.91;5036385;28;20057;-49
2023/01/08 08:25:42;;;;;;;13.18;10.40;;;;;;;19.69;56.02;101264.69;5036023;28;20380;-49
2023/01/08 08:28:11;;;;;;;13.20;10.82;;;;;;;19.69;55.95;101259.31;5036047;28;20052;-48
2023/01/08 08:30:38;;;;;;;12.15;9.43;;;;;;;19.69;55.90;101262.00;5053630;28;20041;-50
2023/01/08 08:33:09;;;;;;;13.13;10.45;;;;;;;19.68;55.92;101267.47;5055984;28;20049;-53
2023/01/08 08:35:36;;;;;;;13.05;10.13;;;;;;;19.69;55.92;101272.75;5055684;28;20045;-50
2023/01/08 08:38:04;;;;;;;11.80;9.30;;;;;;;19.69;55.87;101255.78;5055611;28;20494;-48
2023/01/08 08:40:31;;;;;;;12.70;10.27;;;;;;;19.68;55.83;101259.41;5056150;28;20049;-49
2023/01/08 08:43:00;;;;;;;13.25;9.63;;;;;;;19.68;55.90;101252.22;5055482;28;20052;-47
2023/01/08 08:45:28;;;;;;;14.93;10.38;;;;;;;19.68;55.71;101248.69;5055597;28;20048;-49
2023/01/08 08:47:57;;;;;;;12.32;9.88;;;;;;;19.68;55.80;101237.94;5055673;28;20454;-48
2023/01/08 08:50:24;;;;;;;13.98;10.88;;;;;;;19.68;55.69;101225.34;5055209;28;20506;-50
2023/01/08 08:52:57;;;;;;;11.25;9.38;;;;;;;19.67;55.84;101220.97;5055507;28;20052;-51
2023/01/08 08:55:24;;;;;;;10.70;9.55;;;;;;;19.68;55.76;101235.25;5055497;28;20048;-48
2023/01/08 08:57:52;;;;;;;14.07;11.02;;;;;;;19.68;55.72;101240.63;5054869;28;20053;-48
2023/01/08 09:00:19;;;;;;;13.15;10.52;;;;;;;19.68;55.72;101237.94;5054719;28;20068;-50
2023/01/08 09:02:49;;;;;;;13.82;10.15;;;;;;;19.68;55.59;101224.50;5055512;28;20049;-52
2023/01/08 09:05:17;;;;;;;12.73;9.85;;;;;;;19.68;55.83;101232.56;5055095;28;20103;-48
2023/01/08 09:07:44;;;;;;;13.63;10.13;;;;;;;19.69;55.75;101234.28;5054996;28;20045;-51
2023/01/08 09:10:11;;;;;;;10.98;9.43;;;;;;;19.68;55.77;101228.03;5048995;28;20037;-49
2023/01/08 09:12:38;;;;;;;14.48;11.35;;;;;;;19.68;55.80;101227.19;5035165;28;20051;-49
2023/01/08 09:15:06;;;;;;;13.40;11.35;;;;;;;19.68;55.80;101232.56;5035071;28;20052;-47
2023/01/08 09:17:35;;;;;;;13.18;10.65;;;;;;;19.69;55.46;101218.19;5047771;28;20038;-49
2023/01/08 09:20:04;;;;;;;15.40;11.10;;;;;;;19.67;55.42;101215.59;5054422;28;20498;-49
2023/01/08 09:22:32;;;;;;;13.00;10.25;;;;;;;19.68;55.95;101206.56;5054952;28;20060;-49
2023/01/08 09:24:59;;;;;;;13.25;10.10;;;;;;;19.69;55.83;101208.28;5055515;28;20064;-50
2023/01/08 09:27:26;;;;;;;15.57;10.43;;;;;;;19.72;55.83;101201.78;5054728;28;20387;-50
2023/01/08 09:29:54;;;;;;;13.70;10.57;;;;;;;19.72;55.83;101205.31;5054942;28;20045;-49
2023/01/08 09:32:21;;;;;;;14.93;10.88;;;;;;;19.72;55.54;101194.56;5054465;28;20053;-47
2023/01/08 09:34:48;;;;;;;18.80;15.00;;;;;;;19.71;54.01;101221.56;5054314;28;20045;-48
2023/01/08 09:37:15;;;;;;;29.77;22.83;;;;;;;19.51;50.61;101226.69;5054690;28;20052;-48
2023/01/08 09:39:43;;;;;;;31.83;23.98;;;;;;;19.31;50.47;101223.91;5043491;28;20052;-48
2023/01/08 09:42:24;;;;;;;33.17;25.33;;;;;;;19.01;50.47;101204.75;5053541;28;20495;-49
2023/01/08 09:44:56;;;;;;;34.03;26.40;;;;;;;18.77;50.52;101199.47;5047454;28;20053;-50
2023/01/08 09:47:41;;;;;;;34.47;25.90;;;;;;;18.52;51.45;101184.38;5034112;28;20433;-48
2023/01/08 09:50:12;;;;;;;37.28;25.48;;;;;;;18.35;51.49;101181.25;5034610;28;20045;-48
2023/01/08 09:52:40;;;;;;;35.17;25.50;;;;;;;18.25;52.08;101181.97;5034479;28;20056;-51
2023/01/08 09:55:15;;;;;;;34.47;24.92;;;;;;;18.23;52.89;101166.97;5034076;28;20049;-49
2023/01/08 09:57:43;;;;;;;25.90;18.40;;;;;;;18.35;55.27;101159.81;5046178;28;20402;-47
2023/01/08 10:00:18;;;;;;;23.20;17.02;;;;;;;18.51;55.65;101163.91;5053965;28;20052;-48
2023/01/08 10:02:45;;;;;;;22.65;16.90;;;;;;;18.67;55.94;101165.38;5053949;28;20490;-46
2023/01/08 10:05:15;;;;;;;25.15;17.20;;;;;;;18.80;55.82;101168.00;5053901;28;20052;-50
2023/01/08 10:07:44;;;;;;;22.30;15.93;;;;;;;18.92;55.47;101172.41;5054255;28;20399;-47
2023/01/08 10:10:29;;;;;;;23.80;16.73;;;;;;;19.01;55.46;101158.28;5053821;28;20045;-47
2023/01/08 10:12:58;;;;;;;21.02;16.65;;;;;;;19.08;55.24;101162.19;5055167;28;20037;-49
2023/01/08 10:15:25;;;;;;;19.63;14.40;;;;;;;19.13;55.13;101135.81;5064627;28;20052;-45
2023/01/08 10:18:10;;;;;;;19.25;15.35;;;;;;;19.18;55.13;101138.13;5058227;28;20530;-46
2023/01/08 10:20:38;;;;;;;20.50;14.57;;;;;;;19.21;55.19;101136.06;5056889;28;20375;-48
2023/01/08 10:23:14;;;;;;;20.83;14.95;;;;;;;19.24;55.13;101133.13;5058038;28;20056;-49
2023/01/08 10:25:57;;;;;;;26.52;16.73;;;;;;;19.26;53.81;101116.91;5042426;28;20048;-48
2023/01/08 10:28:24;;;;;;;28.97;21.63;;;;;;;19.19;51.39;101119.22;5062845;28;20049;-46
2023/01/08 10:30:53;;;;;;;36.42;24.88;;;;;;;19.01;51.27;101109.97;5053478;28;20051;-46
2023/01/08 10:33:50;;;;;;;29.60;21.27;;;;;;;18.84;51.79;101107.75;5051692;28;20053;-46
2023/01/08 10:36:22;;;;;;;29.45;23.15;;;;;;;18.68;51.67;101108.13;5063655;28;20072;-47
2023/01/08 10:38:56;;;;;;;34.72;22.17;;;;;;;18.68;52.68;101106.28;5067141;28;20049;-47
2023/01/08 10:41:25;;;;;;;33.17;22.30;;;;;;;18.73;52.93;101096.06;5056211;28;20132;-47
2023/01/08 10:44:05;;;;;;;39.75;25.05;;;;;;;18.79;52.53;101100.09;5067521;28;20044;-46
2023/01/08 10:46:42;;;;;;;33.10;23.90;;;;;;;18.85;52.12;101093.41;5064709;28;20055;-47
2023/01/08 10:49:38;;;;;;;32.50;21.40;;;;;;;18.90;52.67;101086.69;5056608;28;20045;-47
2023/01/08 10:52:20;;;;;;;31.17;21.45;;;;;;;18.94;52.22;101087.28;5048448;28;20052;-48
2023/01/08 10:54:48;;;;;;;28.92;20.30;;;;;;;19.00;52.59;101086.81;5059208;28;20061;-47
2023/01/08 10:57:23;;;;;;;25.42;18.40;;;;;;;19.05;52.50;101086.44;5069331;28;20490;-49
2023/01/08 10:59:50;;;;;;;25.73;18.10;;;;;;;19.08;52.54;101081.69;5057374;28;20047;-46
2023/01/08 11:02:29;;;;;;;31.80;19.00;;;;;;;19.11;52.68;101084.09;5064432;28;20494;-49
2023/01/08 11:04:58;;;;;;;25.52;17.80;;;;;;;19.14;52.56;101075.81;5058143;28;20459;-48
2023/01/08 11:07:26;;;;;;;26.50;17.40;;;;;;;19.17;52.48;101069.34;5069009;28;20052;-49
2023/01/08 11:09:54;;;;;;;23.92;16.92;;;;;;;19.19;52.40;101062.00;5062648;28;20510;-47
2023/01/08 11:12:38;;;;;;;26.17;19.00;;;;;;;19.20;52.08;101056.53;5042144;28;20112;-45
2023/01/08 11:15:18;;;;;;;19.92;15.80;;;;;;;19.22;52.99;101049.19;5068840;28;20052;-48
2023/01/08 11:17:45;;;;;;;20.83;14.48;;;;;;;19.23;53.29;101045.53;5042645;28;20494;-50
2023/01/08 11:20:22;;;;;;;17.75;14.00;;;;;;;19.25;53.41;101038.22;5035047;28;20068;-47
2023/01/08 11:22:50;;;;;;;18.67;13.85;;;;;;;19.26;53.43;101039.91;5059046;28;20044;-50
2023/01/08 11:25:26;;;;;;;20.75;13.77;;;;;;;19.29;53.22;101021.84;5055592;28;20049;-50
2023/01/08 11:27:55;;;;;;;19.27;13.40;;;;;;;19.30;53.37;101013.66;5066586;28;20068;-50